Pagrindinis puslapis
METAR-TAF:

METAR-TAF

Oro uostai :

Haugesiundas, Norvegija

platuma: 59-21N, ilguma: 005-13E, Aukštis: 2 m

Dabartinis oras

Ataskaita buvo paskelbta 26 minutes, ne 22:20 UTC
Vėjas 9 kt iš Pietų
Temperatūra 13°C
Drėgmė 82%
Slėgis 1011 hPa
Matomumas 10 km arba daugiau
Mažai debesys ne aukštis 1800 ft
Su prošvaistėmis ne aukštis 6600 ft
Liūtis kaimynystėje

METAR: ENHD 022220Z 17009KT 9999 VCSH FEW018 BKN066 13/10 Q1011

Laikas: 00:46 (22:46 UTC)

Prognozė

Ataskaita buvo paskelbta 11 valandos ir 46 minutes, ne 11:00 UTC
Prognozė galioja nuo 02 metu 12 UTC su 02 metu 19 UTC
Vėjas 15 kt iš Pietų/Pietvakarių
Matomumas 10 km arba daugiau
Išsisklaidę debesys ne aukštis 1500 ft
Su prošvaistėmis ne aukštis 2500 ft
Laikinai
nuo 02 metu 14 UTC su 02 metu 19 UTC
Vėjas 15 kt iš Pietų su gūsio iki 25 kt
Matomumas: 4000 m
Su prošvaistėmis ne aukštis 1200 ft, Liūtiniai kamuoliniai debesys.
lietus

TAF: ENHD 021100Z 0212/0219 20015KT 9999 SCT015 BKN025 TEMPO 0214/0219 18015G25KT 4000 SHRA BKN012CB

Orai ataskaitas ir orų prognozės (METAR, TAF).

turimą stotys yra geltonos ir raudonos taškus žemėlapyje.

Perkelti pele per norėdami pamatyti stoties vardą.

Tada spustelėkite, norėdami matyti oro stebėjimo ir prognozės.

Norėdami pakeisti žemėlapį: spustelėkite ant žalios mygtukų su juodo kryžiaus žemyn,; žalią mygtuką su brūkšneliu, jei norite nutolinti; arba žalių rodyklių gretimoms žemėlapius.


METAR-TAF: